createdAt,value
2023-01-26T00:00:12.786Z,93.38
2023-01-26T00:03:40.437Z,91.68
2023-01-26T00:07:08.213Z,92.49
2023-01-26T00:10:36.177Z,93.06
2023-01-26T00:14:03.921Z,94.40
2023-01-26T00:17:31.695Z,94.97
2023-01-26T00:20:59.420Z,94.66
2023-01-26T00:24:27.329Z,93.69
2023-01-26T00:27:55.086Z,90.38
2023-01-26T00:31:22.898Z,89.36
2023-01-26T00:34:50.598Z,90.55
2023-01-26T00:38:18.498Z,89.87
2023-01-26T00:41:46.314Z,88.66
2023-01-26T00:45:13.993Z,87.89
2023-01-26T00:48:41.793Z,87.88
2023-01-26T00:52:09.539Z,88.22
2023-01-26T00:55:37.187Z,87.82
2023-01-26T00:59:04.951Z,87.20
2023-01-26T01:02:32.769Z,87.05
2023-01-26T01:06:00.670Z,87.07
2023-01-26T01:09:28.425Z,86.92
2023-01-26T01:12:44.379Z,85.63
2023-01-26T01:16:12.276Z,85.85
2023-01-26T01:19:39.979Z,82.66
2023-01-26T01:23:07.745Z,82.95
2023-01-26T01:26:35.611Z,83.95
2023-01-26T01:30:03.363Z,81.82
2023-01-26T01:33:31.085Z,82.73
2023-01-26T01:36:59.035Z,83.31
2023-01-26T01:40:26.927Z,83.00
2023-01-26T01:43:54.925Z,83.73
2023-01-26T01:47:22.612Z,83.64
2023-01-26T01:50:50.312Z,83.40
2023-01-26T01:54:18.216Z,82.58
2023-01-26T01:57:45.960Z,84.04
2023-01-26T02:01:13.972Z,83.38
2023-01-26T02:04:41.738Z,83.15
2023-01-26T02:08:09.879Z,84.97
2023-01-26T02:11:37.589Z,84.35
2023-01-26T02:15:05.492Z,84.44
2023-01-26T02:18:14.343Z,83.62
2023-01-26T02:21:42.201Z,85.60
2023-01-26T02:25:09.822Z,84.20
2023-01-26T02:28:18.513Z,87.05
2023-01-26T02:31:27.058Z,86.81
2023-01-26T02:34:36.249Z,86.36
2023-01-26T02:38:03.981Z,88.01
2023-01-26T02:41:31.648Z,89.27
2023-01-26T02:44:59.524Z,90.80
2023-01-26T02:48:27.361Z,91.82
2023-01-26T02:51:55.223Z,92.35
2023-01-26T02:55:23.015Z,93.49
2023-01-26T02:58:50.474Z,93.99
2023-01-26T03:01:59.463Z,94.89
2023-01-26T03:05:27.244Z,96.03
2023-01-26T03:08:55.167Z,95.64
2023-01-26T03:12:22.863Z,95.08
2023-01-26T03:15:11.763Z,96.75
2023-01-26T03:18:39.990Z,99.24
2023-01-26T03:22:07.771Z,98.98
2023-01-26T03:25:35.565Z,99.82
2023-01-26T03:29:03.542Z,98.90
2023-01-26T03:32:31.196Z,97.31
2023-01-26T03:35:58.929Z,99.03
2023-01-26T03:39:26.683Z,98.53
2023-01-26T03:42:54.525Z,98.61
2023-01-26T03:46:22.339Z,97.78
2023-01-26T03:49:50.174Z,97.00
2023-01-26T03:53:17.959Z,95.91
2023-01-26T03:56:45.782Z,93.29
2023-01-26T04:00:13.551Z,91.78
2023-01-26T04:03:41.284Z,91.92
2023-01-26T04:07:09.095Z,91.43
2023-01-26T04:10:37.213Z,91.03
2023-01-26T04:14:04.902Z,90.82
2023-01-26T04:17:32.740Z,90.61
2023-01-26T04:21:00.638Z,90.53
2023-01-26T04:24:28.489Z,90.61
2023-01-26T04:27:56.264Z,92.06
2023-01-26T04:31:24.173Z,92.08
2023-01-26T04:34:51.765Z,92.62
2023-01-26T04:38:19.586Z,92.92
2023-01-26T04:41:47.692Z,92.20
2023-01-26T04:44:56.132Z,92.50
2023-01-26T04:48:23.955Z,92.47
2023-01-26T04:51:51.543Z,91.94
2023-01-26T04:55:19.405Z,91.93
2023-01-26T04:58:28.549Z,90.48
2023-01-26T05:01:56.319Z,90.02
2023-01-26T05:05:24.147Z,90.81
2023-01-26T05:08:51.830Z,91.20
2023-01-26T05:12:19.581Z,91.85
2023-01-26T05:15:22.649Z,93.05
2023-01-26T05:18:50.483Z,93.07
2023-01-26T05:22:24.319Z,92.65
2023-01-26T05:25:54.822Z,93.13
2023-01-26T05:29:34.666Z,90.91
2023-01-26T05:33:02.757Z,89.76
2023-01-26T05:36:30.664Z,89.20
2023-01-26T05:39:58.992Z,88.80
2023-01-26T05:43:07.395Z,89.63
2023-01-26T05:46:47.458Z,88.14
2023-01-26T05:49:56.373Z,87.13
2023-01-26T05:53:23.984Z,86.55
2023-01-26T05:56:51.859Z,86.52
2023-01-26T06:00:19.776Z,85.36
2023-01-26T06:03:47.443Z,85.39
2023-01-26T06:07:15.353Z,84.70
2023-01-26T06:10:46.096Z,86.77
2023-01-26T06:13:59.573Z,86.53
2023-01-26T06:17:08.353Z,86.25
2023-01-26T06:20:36.195Z,86.71
2023-01-26T06:24:04.035Z,85.26
2023-01-26T06:27:12.692Z,86.02
2023-01-26T06:30:40.666Z,84.35
2023-01-26T06:34:08.342Z,85.05
2023-01-26T06:37:36.217Z,84.99
2023-01-26T06:41:04.145Z,84.90
2023-01-26T06:44:12.847Z,84.18
2023-01-26T06:47:40.725Z,84.50
2023-01-26T06:51:08.642Z,83.73
2023-01-26T06:54:36.472Z,83.37
2023-01-26T06:58:03.038Z,84.29
2023-01-26T07:01:29.844Z,83.59
2023-01-26T07:04:57.359Z,82.26
2023-01-26T07:08:25.408Z,83.41
2023-01-26T07:11:53.096Z,84.15
2023-01-26T07:15:20.958Z,83.10
2023-01-26T07:18:29.493Z,82.30
2023-01-26T07:21:38.193Z,82.70
2023-01-26T07:25:05.864Z,82.73
2023-01-26T07:28:33.743Z,82.65
2023-01-26T07:32:01.640Z,82.33
2023-01-26T07:35:29.284Z,81.14
2023-01-26T07:38:57.003Z,81.25
2023-01-26T07:42:24.836Z,80.95
2023-01-26T07:45:55.736Z,80.67
2023-01-26T07:49:23.549Z,81.06
2023-01-26T07:52:51.382Z,80.65
2023-01-26T07:56:19.192Z,80.27
2023-01-26T07:59:47.020Z,79.30
2023-01-26T08:02:59.829Z,80.12
2023-01-26T08:06:27.641Z,80.39
2023-01-26T08:09:55.516Z,80.03
2023-01-26T08:13:34.475Z,78.55
2023-01-26T08:16:32.312Z,79.92
2023-01-26T08:20:00.124Z,78.55
2023-01-26T08:23:08.879Z,79.13
2023-01-26T08:26:37.505Z,78.36
2023-01-26T08:30:05.199Z,78.47
2023-01-26T08:33:33.062Z,77.16
2023-01-26T08:37:00.802Z,77.00
2023-01-26T08:40:28.736Z,75.80
2023-01-26T08:43:56.687Z,76.44
2023-01-26T08:47:24.611Z,76.60
2023-01-26T08:50:52.493Z,75.39
2023-01-26T08:54:20.257Z,75.41
2023-01-26T08:57:48.936Z,76.45
2023-01-26T09:01:16.789Z,76.70
2023-01-26T09:04:06.112Z,78.09
2023-01-26T09:07:34.004Z,76.01
2023-01-26T09:11:01.616Z,74.52
2023-01-26T09:14:29.156Z,75.11
2023-01-26T09:17:59.777Z,75.48
2023-01-26T09:21:25.326Z,74.44
2023-01-26T09:24:53.077Z,71.75
2023-01-26T09:28:20.797Z,71.43
2023-01-26T09:31:48.470Z,70.99
2023-01-26T09:35:16.693Z,71.07
2023-01-26T09:38:44.205Z,69.93
2023-01-26T09:42:12.052Z,67.07
2023-01-26T09:45:39.801Z,68.19
2023-01-26T09:49:07.636Z,68.94
2023-01-26T09:52:17.065Z,68.58
2023-01-26T09:55:44.789Z,67.69
2023-01-26T09:58:34.562Z,67.24
2023-01-26T10:02:02.453Z,67.95
2023-01-26T10:05:30.098Z,67.17
2023-01-26T10:08:57.866Z,69.75
2023-01-26T10:12:25.763Z,64.50
2023-01-26T10:15:53.658Z,64.85
2023-01-26T10:19:21.380Z,66.00
2023-01-26T10:22:48.927Z,63.70
2023-01-26T10:26:16.886Z,63.40
2023-01-26T10:29:44.649Z,64.23
2023-01-26T10:33:12.512Z,65.15
2023-01-26T10:36:40.576Z,65.52
2023-01-26T10:40:08.490Z,65.30
2023-01-26T10:43:36.376Z,65.39
2023-01-26T10:47:04.435Z,65.17
2023-01-26T10:50:32.302Z,67.14
2023-01-26T10:54:00.128Z,67.61
2023-01-26T10:57:27.834Z,67.20
2023-01-26T11:00:55.432Z,68.32
2023-01-26T11:04:23.255Z,71.23
2023-01-26T11:07:51.037Z,69.89
2023-01-26T11:11:18.785Z,71.33
2023-01-26T11:14:46.601Z,67.87
2023-01-26T11:17:55.463Z,66.54
2023-01-26T11:21:23.273Z,65.97
2023-01-26T11:24:51.447Z,65.72
2023-01-26T11:28:19.324Z,66.97
2023-01-26T11:31:47.183Z,66.36
2023-01-26T11:34:55.879Z,66.35
2023-01-26T11:38:23.467Z,69.06
2023-01-26T11:41:51.251Z,67.06
2023-01-26T11:45:18.948Z,67.35
2023-01-26T11:48:47.204Z,68.29
2023-01-26T11:52:14.988Z,67.37
2023-01-26T11:55:23.648Z,67.96
2023-01-26T11:58:51.597Z,67.83
2023-01-26T12:02:19.313Z,68.27
2023-01-26T12:05:47.273Z,68.62
2023-01-26T12:09:15.409Z,67.82
2023-01-26T12:12:43.486Z,66.88
2023-01-26T12:16:11.774Z,66.93
2023-01-26T12:19:39.500Z,64.68
2023-01-26T12:23:07.311Z,65.38
2023-01-26T12:26:35.126Z,66.52
2023-01-26T12:30:02.954Z,68.18
2023-01-26T12:33:30.849Z,69.27
2023-01-26T12:36:58.839Z,68.72
2023-01-26T12:40:26.476Z,68.78
2023-01-26T12:43:54.138Z,69.64
2023-01-26T12:47:21.920Z,69.34
2023-01-26T12:50:49.737Z,70.00
2023-01-26T12:54:17.402Z,69.71
2023-01-26T12:57:45.339Z,69.45
2023-01-26T13:01:13.109Z,70.68
2023-01-26T13:04:40.626Z,70.37
2023-01-26T13:07:29.496Z,70.47
2023-01-26T13:10:57.222Z,71.18
2023-01-26T13:14:25.144Z,71.40
2023-01-26T13:17:52.878Z,70.86
2023-01-26T13:21:20.595Z,71.16
2023-01-26T13:24:28.566Z,71.19
2023-01-26T13:27:56.398Z,71.35
2023-01-26T13:31:24.407Z,71.93
2023-01-26T13:34:52.063Z,71.53
2023-01-26T13:38:29.211Z,70.91
2023-01-26T13:41:56.408Z,70.87
2023-01-26T13:45:24.373Z,70.99
2023-01-26T13:48:52.330Z,70.93
2023-01-26T13:52:20.218Z,71.35
2023-01-26T13:55:48.039Z,70.54
2023-01-26T13:59:15.765Z,71.68
2023-01-26T14:02:43.659Z,73.69
2023-01-26T14:06:11.273Z,75.26
2023-01-26T14:09:39.301Z,75.76
2023-01-26T14:13:06.961Z,76.40
2023-01-26T14:16:34.777Z,76.45
2023-01-26T14:20:02.537Z,76.63
2023-01-26T14:23:30.381Z,76.82
2023-01-26T14:26:58.552Z,77.21
2023-01-26T14:30:26.473Z,76.06
2023-01-26T14:33:34.937Z,75.87
2023-01-26T14:37:02.740Z,76.47
2023-01-26T14:40:30.358Z,76.89
2023-01-26T14:44:00.272Z,76.72
2023-01-26T14:47:26.458Z,76.35
2023-01-26T14:50:54.355Z,76.83
2023-01-26T14:54:22.011Z,76.47
2023-01-26T14:57:50.631Z,77.74
2023-01-26T15:00:58.929Z,77.88
2023-01-26T15:04:26.733Z,78.39
2023-01-26T15:07:55.143Z,79.64
2023-01-26T15:11:23.031Z,79.92
2023-01-26T15:14:50.891Z,80.91
2023-01-26T15:18:18.796Z,83.93
2023-01-26T15:21:46.392Z,84.88
2023-01-26T15:25:14.314Z,88.20
2023-01-26T15:28:23.123Z,90.21
2023-01-26T15:31:50.952Z,93.83
2023-01-26T15:35:18.630Z,95.65
2023-01-26T15:38:46.368Z,98.12
2023-01-26T15:42:13.913Z,100.00
2023-01-26T15:45:41.757Z,100.00
2023-01-26T15:49:09.587Z,100.00
2023-01-26T15:52:18.125Z,100.00
2023-01-26T15:55:46.059Z,100.00
2023-01-26T15:59:13.905Z,100.00
2023-01-26T16:02:41.649Z,100.00
2023-01-26T16:06:09.406Z,100.00
2023-01-26T16:09:37.277Z,100.00
2023-01-26T16:13:05.138Z,100.00
2023-01-26T16:16:13.472Z,100.00
2023-01-26T16:19:41.545Z,100.00
2023-01-26T16:23:09.260Z,100.00
2023-01-26T16:26:36.953Z,100.00
2023-01-26T16:30:04.709Z,100.00
2023-01-26T16:33:32.563Z,100.00
2023-01-26T16:37:00.350Z,100.00
2023-01-26T16:40:28.308Z,100.00
2023-01-26T16:43:56.092Z,100.00
2023-01-26T16:47:23.947Z,100.00
2023-01-26T16:50:51.916Z,100.00
2023-01-26T16:53:41.308Z,100.00
2023-01-26T16:57:09.104Z,100.00
2023-01-26T17:00:36.780Z,100.00
2023-01-26T17:04:04.552Z,100.00
2023-01-26T17:07:32.161Z,100.00
2023-01-26T17:11:02.978Z,100.00
2023-01-26T17:14:29.672Z,100.00
2023-01-26T17:17:57.462Z,100.00
2023-01-26T17:21:25.315Z,100.00
2023-01-26T17:24:53.243Z,100.00
2023-01-26T17:28:22.064Z,100.00
2023-01-26T17:31:50.027Z,100.00
2023-01-26T17:34:58.240Z,100.00
2023-01-26T17:38:26.008Z,100.00
2023-01-26T17:41:53.992Z,100.00
2023-01-26T17:45:21.725Z,100.00
2023-01-26T17:48:49.681Z,100.00
2023-01-26T17:52:17.359Z,100.00
2023-01-26T17:55:45.203Z,100.00
2023-01-26T17:59:13.227Z,100.00
2023-01-26T18:02:40.862Z,100.00
2023-01-26T18:06:08.679Z,100.00
2023-01-26T18:09:36.466Z,100.00
2023-01-26T18:13:04.425Z,100.00
2023-01-26T18:16:32.155Z,100.00
2023-01-26T18:19:59.597Z,100.00
2023-01-26T18:23:27.401Z,100.00
2023-01-26T18:26:55.212Z,100.00
2023-01-26T18:30:22.957Z,100.00
2023-01-26T18:33:50.714Z,100.00
2023-01-26T18:37:18.637Z,100.00
2023-01-26T18:40:46.388Z,100.00
2023-01-26T18:44:14.419Z,100.00
2023-01-26T18:47:31.199Z,100.00
2023-01-26T18:50:59.785Z,100.00
2023-01-26T18:54:27.580Z,100.00
2023-01-26T18:57:55.584Z,100.00
2023-01-26T19:01:20.775Z,100.00
2023-01-26T19:04:48.722Z,100.00
2023-01-26T19:07:45.642Z,100.00
2023-01-26T19:11:13.229Z,100.00
2023-01-26T19:14:40.981Z,100.00
2023-01-26T19:18:08.955Z,100.00
2023-01-26T19:21:37.162Z,100.00
2023-01-26T19:24:44.895Z,100.00
2023-01-26T19:28:12.811Z,100.00
2023-01-26T19:31:40.881Z,100.00
2023-01-26T19:35:08.386Z,100.00
2023-01-26T19:38:16.293Z,100.00
2023-01-26T19:41:44.079Z,100.00
2023-01-26T19:45:12.099Z,100.00
2023-01-26T19:48:39.895Z,100.00
2023-01-26T19:52:07.787Z,100.00
2023-01-26T19:55:35.447Z,100.00
2023-01-26T19:58:43.896Z,100.00
2023-01-26T20:02:11.711Z,100.00
2023-01-26T20:05:19.561Z,100.00
2023-01-26T20:08:47.241Z,100.00
2023-01-26T20:12:14.921Z,100.00
2023-01-26T20:15:23.363Z,100.00
2023-01-26T20:18:51.363Z,100.00
2023-01-26T20:22:19.207Z,100.00
2023-01-26T20:25:47.090Z,100.00
2023-01-26T20:28:58.268Z,100.00
2023-01-26T20:32:23.899Z,100.00
2023-01-26T20:35:51.524Z,100.00
2023-01-26T20:38:59.728Z,100.00
2023-01-26T20:42:27.611Z,100.00
2023-01-26T20:45:55.416Z,100.00
2023-01-26T20:49:23.273Z,100.00
2023-01-26T20:52:51.337Z,100.00
2023-01-26T20:56:19.194Z,100.00
2023-01-26T20:59:47.291Z,100.00
2023-01-26T21:03:15.238Z,100.00
2023-01-26T21:06:43.437Z,100.00
2023-01-26T21:10:11.394Z,100.00
2023-01-26T21:13:38.847Z,100.00
2023-01-26T21:17:06.507Z,100.00
2023-01-26T21:20:34.247Z,100.00
2023-01-26T21:24:02.242Z,100.00
2023-01-26T21:27:30.034Z,100.00
2023-01-26T21:30:57.941Z,100.00
2023-01-26T21:34:25.571Z,100.00
2023-01-26T21:37:53.472Z,100.00
2023-01-26T21:41:21.218Z,100.00
2023-01-26T21:44:49.067Z,100.00
2023-01-26T21:48:16.795Z,100.00
2023-01-26T21:51:44.746Z,100.00
2023-01-26T21:55:12.630Z,100.00
2023-01-26T21:58:40.312Z,100.00
2023-01-26T22:02:08.435Z,100.00
2023-01-26T22:05:36.255Z,100.00
2023-01-26T22:09:04.101Z,100.00
2023-01-26T22:12:32.036Z,100.00
2023-01-26T22:16:00.437Z,100.00
2023-01-26T22:19:07.982Z,100.00
2023-01-26T22:22:35.770Z,100.00
2023-01-26T22:26:03.469Z,100.00
2023-01-26T22:29:31.207Z,100.00
2023-01-26T22:32:58.850Z,100.00
2023-01-26T22:36:06.664Z,100.00
2023-01-26T22:39:34.447Z,100.00
2023-01-26T22:42:42.534Z,100.00
2023-01-26T22:46:10.759Z,100.00
2023-01-26T22:49:18.651Z,100.00
2023-01-26T22:52:47.961Z,100.00
2023-01-26T22:55:57.259Z,100.00
2023-01-26T22:59:28.312Z,100.00
2023-01-26T23:02:17.174Z,100.00
2023-01-26T23:05:45.079Z,100.00
2023-01-26T23:09:13.494Z,100.00
2023-01-26T23:12:41.718Z,100.00
2023-01-26T23:16:09.567Z,100.00
2023-01-26T23:19:39.512Z,100.00
2023-01-26T23:23:07.411Z,100.00
2023-01-26T23:26:35.331Z,100.00
2023-01-26T23:30:03.581Z,100.00
2023-01-26T23:33:11.351Z,100.00
2023-01-26T23:36:39.183Z,100.00
2023-01-26T23:40:06.946Z,100.00
2023-01-26T23:43:35.116Z,100.00
2023-01-26T23:46:51.124Z,100.00
2023-01-26T23:50:00.779Z,100.00
2023-01-26T23:53:28.891Z,100.00
2023-01-26T23:56:56.627Z,100.00
